sensor_id;sensor_type;location;lat;lon;timestamp;pressure;altitude;pressure_sealevel;temperature;humidity
71195;BME280;58908;51.426;7.714;2024-02-23T11:55:51;97449.16;;;9.03;96.29
71195;BME280;58908;51.426;7.714;2024-02-23T11:58:18;97425.03;;;8.89;96.49
71195;BME280;58908;51.426;7.714;2024-02-23T12:00:44;97428.13;;;9.13;97.08
71195;BME280;58908;51.426;7.714;2024-02-23T12:03:11;97425.66;;;9.30;97.54
71195;BME280;58908;51.426;7.714;2024-02-23T12:05:37;97426.34;;;9.23;97.06
71195;BME280;58908;51.426;7.714;2024-02-23T12:08:03;97430.59;;;9.05;96.16
71195;BME280;58908;51.426;7.714;2024-02-23T12:10:30;97427.63;;;9.38;96.53
71195;BME280;58908;51.426;7.714;2024-02-23T12:12:58;97416.16;;;9.48;94.87
71195;BME280;58908;51.426;7.714;2024-02-23T12:15:24;97429.31;;;9.76;96.64
71195;BME280;58908;51.426;7.714;2024-02-23T12:17:51;97422.25;;;9.67;95.73
71195;BME280;58908;51.426;7.714;2024-02-23T12:20:17;97422.25;;;9.58;95.28
71195;BME280;58908;51.426;7.714;2024-02-23T12:22:43;97415.59;;;9.73;95.44
71195;BME280;58908;51.426;7.714;2024-02-23T12:25:11;97423.75;;;9.79;94.59
71195;BME280;58908;51.426;7.714;2024-02-23T12:27:40;97420.16;;;9.80;92.36
71195;BME280;58908;51.426;7.714;2024-02-23T12:30:12;97417.13;;;9.75;93.60
71195;BME280;58908;51.426;7.714;2024-02-23T12:32:39;97420.31;;;9.50;93.77
71195;BME280;58908;51.426;7.714;2024-02-23T12:35:05;97417.41;;;9.82;93.99
71195;BME280;58908;51.426;7.714;2024-02-23T12:37:34;97431.38;;;9.54;96.50
71195;BME280;58908;51.426;7.714;2024-02-23T12:40:01;97444.97;;;9.68;97.24
71195;BME280;58908;51.426;7.714;2024-02-23T12:42:27;97437.34;;;9.56;97.64
71195;BME280;58908;51.426;7.714;2024-02-23T12:44:54;97428.91;;;9.81;95.84
71195;BME280;58908;51.426;7.714;2024-02-23T12:47:21;97438.31;;;9.74;96.63
71195;BME280;58908;51.426;7.714;2024-02-23T12:49:48;97433.75;;;9.85;96.23
71195;BME280;58908;51.426;7.714;2024-02-23T12:52:14;97421.53;;;10.22;94.70
71195;BME280;58908;51.426;7.714;2024-02-23T12:54:40;97420.56;;;10.23;94.81
71195;BME280;58908;51.426;7.714;2024-02-23T12:57:07;97418.91;;;10.13;93.29
71195;BME280;58908;51.426;7.714;2024-02-23T12:59:33;97410.47;;;10.09;92.64
71195;BME280;58908;51.426;7.714;2024-02-23T13:01:59;97406.41;;;10.24;91.97
71195;BME280;58908;51.426;7.714;2024-02-23T13:04:27;97402.28;;;10.22;88.57
71195;BME280;58908;51.426;7.714;2024-02-23T13:06:53;97394.78;;;10.08;86.53
71195;BME280;58908;51.426;7.714;2024-02-23T13:09:20;97385.66;;;10.02;86.73
71195;BME280;58908;51.426;7.714;2024-02-23T13:11:46;97377.41;;;10.34;85.03
71195;BME280;58908;51.426;7.714;2024-02-23T13:14:13;97378.84;;;9.90;84.92
71195;BME280;58908;51.426;7.714;2024-02-23T13:16:40;97390.38;;;9.70;87.05
71195;BME280;58908;51.426;7.714;2024-02-23T13:19:07;97394.06;;;10.15;86.23
71195;BME280;58908;51.426;7.714;2024-02-23T13:21:35;97405.75;;;9.94;86.92
71195;BME280;58908;51.426;7.714;2024-02-23T13:24:01;97408.38;;;9.75;87.46
71195;BME280;58908;51.426;7.714;2024-02-23T13:26:28;97407.13;;;9.69;88.17
71195;BME280;58908;51.426;7.714;2024-02-23T13:28:54;97420.88;;;9.63;88.97
71195;BME280;58908;51.426;7.714;2024-02-23T13:31:20;97430.13;;;9.67;88.56
71195;BME280;58908;51.426;7.714;2024-02-23T13:33:47;97424.59;;;9.70;89.42
71195;BME280;58908;51.426;7.714;2024-02-23T13:36:14;97427.50;;;9.58;90.66
71195;BME280;58908;51.426;7.714;2024-02-23T13:38:42;97425.16;;;9.74;91.21
71195;BME280;58908;51.426;7.714;2024-02-23T13:41:08;97422.50;;;9.74;91.19
71195;BME280;58908;51.426;7.714;2024-02-23T13:43:34;97425.56;;;9.69;91.14
71195;BME280;58908;51.426;7.714;2024-02-23T13:46:01;97443.72;;;9.63;90.72
71195;BME280;58908;51.426;7.714;2024-02-23T13:48:28;97427.66;;;9.47;91.30
71195;BME280;58908;51.426;7.714;2024-02-23T13:50:55;97435.28;;;10.07;91.68
71195;BME280;58908;51.426;7.714;2024-02-23T13:53:21;97411.97;;;10.21;88.74
71195;BME280;58908;51.426;7.714;2024-02-23T13:55:49;97423.22;;;10.14;89.19
71195;BME280;58908;51.426;7.714;2024-02-23T13:58:15;97434.72;;;9.94;89.15
71195;BME280;58908;51.426;7.714;2024-02-23T14:00:42;97430.53;;;9.91;90.72
71195;BME280;58908;51.426;7.714;2024-02-23T14:03:08;97441.38;;;10.07;91.38
71195;BME280;58908;51.426;7.714;2024-02-23T14:05:37;97430.44;;;10.02;90.12
71195;BME280;58908;51.426;7.714;2024-02-23T14:08:06;97446.66;;;10.07;90.40
71195;BME280;58908;51.426;7.714;2024-02-23T14:10:32;97447.72;;;10.14;90.90
71195;BME280;58908;51.426;7.714;2024-02-23T14:13:00;97447.31;;;10.28;90.29
71195;BME280;58908;51.426;7.714;2024-02-23T14:15:26;97467.84;;;9.68;91.27
71195;BME280;58908;51.426;7.714;2024-02-23T14:17:53;97478.63;;;9.65;92.43
71195;BME280;58908;51.426;7.714;2024-02-23T14:20:20;97468.94;;;9.84;92.79
71195;BME280;58908;51.426;7.714;2024-02-23T14:22:47;97482.50;;;9.70;92.96
71195;BME280;58908;51.426;7.714;2024-02-23T14:25:15;97474.88;;;9.67;92.29
71195;BME280;58908;51.426;7.714;2024-02-23T14:27:41;97486.91;;;9.42;92.38
71195;BME280;58908;51.426;7.714;2024-02-23T14:30:09;97481.38;;;9.54;93.43
71195;BME280;58908;51.426;7.714;2024-02-23T14:32:36;97491.63;;;9.47;94.02
71195;BME280;58908;51.426;7.714;2024-02-23T14:35:02;97492.28;;;9.31;95.33
71195;BME280;58908;51.426;7.714;2024-02-23T14:37:29;97500.97;;;9.22;95.81
71195;BME280;58908;51.426;7.714;2024-02-23T14:39:55;97491.91;;;9.44;96.65
71195;BME280;58908;51.426;7.714;2024-02-23T14:42:21;97497.28;;;9.43;96.08
71195;BME280;58908;51.426;7.714;2024-02-23T14:44:47;97495.72;;;9.31;97.25
71195;BME280;58908;51.426;7.714;2024-02-23T14:47:16;97496.56;;;9.32;95.75
71195;BME280;58908;51.426;7.714;2024-02-23T14:49:42;97495.50;;;9.43;96.17
71195;BME280;58908;51.426;7.714;2024-02-23T14:52:09;97498.13;;;9.43;95.75
71195;BME280;58908;51.426;7.714;2024-02-23T14:54:35;97493.69;;;9.44;96.01
71195;BME280;58908;51.426;7.714;2024-02-23T14:57:02;97496.75;;;9.49;95.83
71195;BME280;58908;51.426;7.714;2024-02-23T14:59:28;97507.31;;;9.19;96.48
71195;BME280;58908;51.426;7.714;2024-02-23T15:01:55;97499.19;;;9.22;96.76
71195;BME280;58908;51.426;7.714;2024-02-23T15:04:23;97504.19;;;9.25;97.26
71195;BME280;58908;51.426;7.714;2024-02-23T15:06:49;97494.34;;;9.27;96.37
71195;BME280;58908;51.426;7.714;2024-02-23T15:09:15;97493.47;;;9.17;96.67
71195;BME280;58908;51.426;7.714;2024-02-23T15:11:42;97500.69;;;9.15;96.95
71195;BME280;58908;51.426;7.714;2024-02-23T15:14:08;97496.75;;;9.00;95.67
71195;BME280;58908;51.426;7.714;2024-02-23T15:16:34;97500.78;;;9.04;96.57
71195;BME280;58908;51.426;7.714;2024-02-23T15:19:01;97503.13;;;9.07;96.08
71195;BME280;58908;51.426;7.714;2024-02-23T15:21:28;97497.66;;;9.20;95.51
71195;BME280;58908;51.426;7.714;2024-02-23T15:23:55;97504.13;;;9.16;95.66
71195;BME280;58908;51.426;7.714;2024-02-23T15:26:21;97497.09;;;9.26;95.57
71195;BME280;58908;51.426;7.714;2024-02-23T15:28:47;97499.19;;;9.22;95.61
71195;BME280;58908;51.426;7.714;2024-02-23T15:31:14;97496.13;;;9.17;95.43
71195;BME280;58908;51.426;7.714;2024-02-23T15:33:40;97488.91;;;9.19;96.03
71195;BME280;58908;51.426;7.714;2024-02-23T15:36:06;97494.16;;;9.10;96.16
71195;BME280;58908;51.426;7.714;2024-02-23T15:38:35;97491.72;;;9.27;95.29
71195;BME280;58908;51.426;7.714;2024-02-23T15:41:01;97495.88;;;8.90;96.18
71195;BME280;58908;51.426;7.714;2024-02-23T15:43:28;97493.75;;;9.14;95.36
71195;BME280;58908;51.426;7.714;2024-02-23T15:45:54;97484.22;;;9.23;95.40
71195;BME280;58908;51.426;7.714;2024-02-23T15:48:21;97487.16;;;8.90;95.36
71195;BME280;58908;51.426;7.714;2024-02-23T15:50:48;97491.66;;;9.08;94.81
71195;BME280;58908;51.426;7.714;2024-02-23T15:53:14;97500.09;;;9.12;95.53
71195;BME280;58908;51.426;7.714;2024-02-23T15:55:42;97504.91;;;8.67;96.24
71195;BME280;58908;51.426;7.714;2024-02-23T15:58:08;97509.44;;;8.86;98.09
71195;BME280;58908;51.426;7.714;2024-02-23T16:00:35;97508.44;;;8.57;98.92
71195;BME280;58908;51.426;7.714;2024-02-23T16:03:02;97508.75;;;8.63;98.80
71195;BME280;58908;51.426;7.714;2024-02-23T16:05:28;97514.19;;;8.71;98.78
71195;BME280;58908;51.426;7.714;2024-02-23T16:07:54;97515.72;;;8.74;99.63
71195;BME280;58908;51.426;7.714;2024-02-23T16:10:20;97526.00;;;8.56;100.00
71195;BME280;58908;51.426;7.714;2024-02-23T16:12:49;97527.13;;;8.63;100.00
71195;BME280;58908;51.426;7.714;2024-02-23T16:15:15;97531.31;;;8.66;100.00
71195;BME280;58908;51.426;7.714;2024-02-23T16:17:41;97515.81;;;8.63;99.86
71195;BME280;58908;51.426;7.714;2024-02-23T16:20:08;97530.63;;;8.64;100.00
71195;BME280;58908;51.426;7.714;2024-02-23T16:22:35;97528.78;;;8.64;100.00
71195;BME280;58908;51.426;7.714;2024-02-23T16:25:01;97520.78;;;8.66;100.00
71195;BME280;58908;51.426;7.714;2024-02-23T16:27:28;97534.84;;;8.35;100.00
71195;BME280;58908;51.426;7.714;2024-02-23T16:29:56;97530.50;;;8.24;100.00
71195;BME280;58908;51.426;7.714;2024-02-23T16:32:22;97519.47;;;8.51;100.00
71195;BME280;58908;51.426;7.714;2024-02-23T16:34:48;97524.03;;;8.17;100.00
71195;BME280;58908;51.426;7.714;2024-02-23T16:37:14;97529.06;;;8.20;100.00
71195;BME280;58908;51.426;7.714;2024-02-23T16:39:41;97527.59;;;7.96;100.00
71195;BME280;58908;51.426;7.714;2024-02-23T16:42:07;97539.91;;;8.16;100.00
71195;BME280;58908;51.426;7.714;2024-02-23T16:44:33;97544.28;;;8.06;100.00
71195;BME280;58908;51.426;7.714;2024-02-23T16:47:02;97537.31;;;8.05;100.00
71195;BME280;58908;51.426;7.714;2024-02-23T16:49:28;97543.81;;;8.01;100.00
71195;BME280;58908;51.426;7.714;2024-02-23T16:51:55;97544.41;;;8.04;100.00
71195;BME280;58908;51.426;7.714;2024-02-23T16:54:21;97547.53;;;7.87;100.00
71195;BME280;58908;51.426;7.714;2024-02-23T16:56:47;97542.91;;;7.80;100.00
71195;BME280;58908;51.426;7.714;2024-02-23T16:59:13;97546.28;;;7.71;100.00
71195;BME280;58908;51.426;7.714;2024-02-23T17:01:40;97547.56;;;7.76;100.00
71195;BME280;58908;51.426;7.714;2024-02-23T17:04:08;97553.13;;;7.62;100.00
71195;BME280;58908;51.426;7.714;2024-02-23T17:06:35;97559.66;;;7.68;100.00
71195;BME280;58908;51.426;7.714;2024-02-23T17:09:01;97554.56;;;7.66;100.00
71195;BME280;58908;51.426;7.714;2024-02-23T17:11:27;97569.09;;;7.70;100.00
71195;BME280;58908;51.426;7.714;2024-02-23T17:13:54;97564.56;;;7.61;100.00
71195;BME280;58908;51.426;7.714;2024-02-23T17:16:20;97573.06;;;7.54;100.00
71195;BME280;58908;51.426;7.714;2024-02-23T17:18:52;97577.94;;;7.58;100.00
71195;BME280;58908;51.426;7.714;2024-02-23T17:21:19;97580.81;;;7.44;100.00
71195;BME280;58908;51.426;7.714;2024-02-23T17:23:46;97593.06;;;7.55;100.00
71195;BME280;58908;51.426;7.714;2024-02-23T17:26:12;97595.97;;;7.41;100.00
71195;BME280;58908;51.426;7.714;2024-02-23T17:28:39;97590.47;;;7.55;100.00
71195;BME280;58908;51.426;7.714;2024-02-23T17:31:06;97585.63;;;7.71;100.00
71195;BME280;58908;51.426;7.714;2024-02-23T17:33:33;97589.97;;;7.61;100.00
71195;BME280;58908;51.426;7.714;2024-02-23T17:35:59;97592.38;;;7.53;100.00
71195;BME280;58908;51.426;7.714;2024-02-23T17:38:27;97586.59;;;7.70;100.00
71195;BME280;58908;51.426;7.714;2024-02-23T17:40:53;97595.69;;;7.55;100.00
71195;BME280;58908;51.426;7.714;2024-02-23T17:43:19;97595.69;;;7.66;100.00
71195;BME280;58908;51.426;7.714;2024-02-23T17:45:46;97600.09;;;7.65;100.00
71195;BME280;58908;51.426;7.714;2024-02-23T17:48:12;97595.34;;;7.59;100.00
71195;BME280;58908;51.426;7.714;2024-02-23T17:50:38;97596.66;;;7.65;100.00
71195;BME280;58908;51.426;7.714;2024-02-23T17:53:05;97594.13;;;7.63;100.00
71195;BME280;58908;51.426;7.714;2024-02-23T17:55:32;97591.66;;;7.51;100.00
71195;BME280;58908;51.426;7.714;2024-02-23T17:57:59;97593.94;;;7.55;100.00
71195;BME280;58908;51.426;7.714;2024-02-23T18:00:25;97601.19;;;7.52;100.00
71195;BME280;58908;51.426;7.714;2024-02-23T18:02:51;97596.31;;;7.47;100.00
71195;BME280;58908;51.426;7.714;2024-02-23T18:05:18;97585.81;;;7.47;100.00
71195;BME280;58908;51.426;7.714;2024-02-23T18:07:44;97597.59;;;7.64;100.00
71195;BME280;58908;51.426;7.714;2024-02-23T18:10:10;97598.94;;;7.47;100.00
71195;BME280;58908;51.426;7.714;2024-02-23T18:12:38;97595.94;;;7.52;100.00
71195;BME280;58908;51.426;7.714;2024-02-23T18:15:04;97597.25;;;7.57;100.00
71195;BME280;58908;51.426;7.714;2024-02-23T18:17:31;97606.28;;;7.75;100.00
71195;BME280;58908;51.426;7.714;2024-02-23T18:19:57;97602.72;;;7.54;100.00
71195;BME280;58908;51.426;7.714;2024-02-23T18:22:23;97605.44;;;7.75;100.00
71195;BME280;58908;51.426;7.714;2024-02-23T18:24:49;97608.13;;;7.42;100.00
71195;BME280;58908;51.426;7.714;2024-02-23T18:27:16;97602.59;;;7.67;100.00
71195;BME280;58908;51.426;7.714;2024-02-23T18:29:43;97603.22;;;7.48;100.00
71195;BME280;58908;51.426;7.714;2024-02-23T18:32:09;97603.34;;;7.47;100.00
71195;BME280;58908;51.426;7.714;2024-02-23T18:34:36;97612.63;;;7.62;100.00
71195;BME280;58908;51.426;7.714;2024-02-23T18:37:03;97610.84;;;7.51;100.00
71195;BME280;58908;51.426;7.714;2024-02-23T18:39:33;97614.69;;;7.25;100.00
71195;BME280;58908;51.426;7.714;2024-02-23T18:41:59;97614.94;;;7.33;100.00
71195;BME280;58908;51.426;7.714;2024-02-23T18:44:26;97610.25;;;7.37;100.00
71195;BME280;58908;51.426;7.714;2024-02-23T18:46:53;97611.81;;;7.50;100.00
71195;BME280;58908;51.426;7.714;2024-02-23T18:49:21;97625.78;;;7.18;100.00
71195;BME280;58908;51.426;7.714;2024-02-23T18:51:47;97630.78;;;7.32;100.00
71195;BME280;58908;51.426;7.714;2024-02-23T18:54:14;97631.13;;;7.16;100.00
71195;BME280;58908;51.426;7.714;2024-02-23T18:56:40;97630.06;;;7.30;100.00
71195;BME280;58908;51.426;7.714;2024-02-23T18:59:06;97651.13;;;7.17;100.00
71195;BME280;58908;51.426;7.714;2024-02-23T19:07:39;97647.91;;;7.14;100.00
71195;BME280;58908;51.426;7.714;2024-02-23T19:10:06;97628.97;;;7.21;100.00
71195;BME280;58908;51.426;7.714;2024-02-23T19:12:33;97640.88;;;6.93;100.00
71195;BME280;58908;51.426;7.714;2024-02-23T19:15:02;97631.19;;;6.93;100.00
71195;BME280;58908;51.426;7.714;2024-02-23T19:17:28;97629.81;;;7.11;100.00
71195;BME280;58908;51.426;7.714;2024-02-23T19:19:56;97635.66;;;7.14;100.00
71195;BME280;58908;51.426;7.714;2024-02-23T19:22:22;97629.69;;;7.02;100.00
71195;BME280;58908;51.426;7.714;2024-02-23T19:24:49;97624.47;;;7.12;100.00
71195;BME280;58908;51.426;7.714;2024-02-23T19:27:16;97641.81;;;6.92;100.00
71195;BME280;58908;51.426;7.714;2024-02-23T19:29:42;97642.53;;;6.94;100.00
71195;BME280;58908;51.426;7.714;2024-02-23T19:32:08;97640.38;;;6.98;100.00
71195;BME280;58908;51.426;7.714;2024-02-23T19:34:34;97645.41;;;7.02;100.00
71195;BME280;58908;51.426;7.714;2024-02-23T19:37:01;97634.59;;;7.06;100.00
71195;BME280;58908;51.426;7.714;2024-02-23T19:39:27;97649.56;;;7.04;100.00
71195;BME280;58908;51.426;7.714;2024-02-23T19:41:55;97648.34;;;6.86;100.00
71195;BME280;58908;51.426;7.714;2024-02-23T19:44:22;97657.19;;;6.96;100.00
71195;BME280;58908;51.426;7.714;2024-02-23T19:46:48;97647.19;;;7.01;100.00
71195;BME280;58908;51.426;7.714;2024-02-23T19:49:14;97656.63;;;6.69;100.00
71195;BME280;58908;51.426;7.714;2024-02-23T19:51:41;97660.91;;;6.70;100.00
71195;BME280;58908;51.426;7.714;2024-02-23T19:54:08;97672.88;;;6.74;100.00
71195;BME280;58908;51.426;7.714;2024-02-23T19:56:34;97660.50;;;6.87;100.00
71195;BME280;58908;51.426;7.714;2024-02-23T19:59:01;97676.75;;;6.58;100.00
71195;BME280;58908;51.426;7.714;2024-02-23T20:01:28;97678.22;;;6.73;100.00
71195;BME280;58908;51.426;7.714;2024-02-23T20:03:54;97680.78;;;6.62;100.00
71195;BME280;58908;51.426;7.714;2024-02-23T20:06:21;97682.03;;;6.45;100.00
71195;BME280;58908;51.426;7.714;2024-02-23T20:08:47;97686.88;;;6.62;100.00
71195;BME280;58908;51.426;7.714;2024-02-23T20:11:13;97679.84;;;6.63;100.00
71195;BME280;58908;51.426;7.714;2024-02-23T20:13:39;97682.31;;;6.53;100.00
71195;BME280;58908;51.426;7.714;2024-02-23T20:16:07;97684.41;;;6.72;100.00
71195;BME280;58908;51.426;7.714;2024-02-23T20:18:34;97685.22;;;6.61;100.00
71195;BME280;58908;51.426;7.714;2024-02-23T20:21:00;97690.97;;;6.77;100.00
71195;BME280;58908;51.426;7.714;2024-02-23T20:23:26;97688.34;;;6.77;100.00
71195;BME280;58908;51.426;7.714;2024-02-23T20:25:53;97679.59;;;7.00;100.00
71195;BME280;58908;51.426;7.714;2024-02-23T20:28:19;97694.25;;;7.03;100.00
71195;BME280;58908;51.426;7.714;2024-02-23T20:30:47;97687.19;;;6.92;100.00
71195;BME280;58908;51.426;7.714;2024-02-23T20:33:16;97691.72;;;6.90;100.00
71195;BME280;58908;51.426;7.714;2024-02-23T20:35:42;97692.47;;;7.14;100.00
71195;BME280;58908;51.426;7.714;2024-02-23T20:38:09;97683.56;;;7.27;100.00
71195;BME280;58908;51.426;7.714;2024-02-23T20:40:35;97691.63;;;7.03;100.00
71195;BME280;58908;51.426;7.714;2024-02-23T20:43:01;97685.53;;;7.02;100.00
71195;BME280;58908;51.426;7.714;2024-02-23T20:45:27;97689.84;;;7.14;100.00
71195;BME280;58908;51.426;7.714;2024-02-23T20:47:54;97681.97;;;7.03;100.00
71195;BME280;58908;51.426;7.714;2024-02-23T20:50:21;97686.50;;;7.01;100.00
71195;BME280;58908;51.426;7.714;2024-02-23T20:52:48;97694.38;;;7.12;100.00
71195;BME280;58908;51.426;7.714;2024-02-23T20:55:14;97695.56;;;6.97;100.00
71195;BME280;58908;51.426;7.714;2024-02-23T20:57:40;97704.38;;;6.96;100.00
71195;BME280;58908;51.426;7.714;2024-02-23T21:00:07;97692.91;;;6.86;100.00
71195;BME280;58908;51.426;7.714;2024-02-23T21:02:33;97695.19;;;6.91;100.00
71195;BME280;58908;51.426;7.714;2024-02-23T21:05:01;97701.44;;;6.77;100.00
71195;BME280;58908;51.426;7.714;2024-02-23T21:07:29;97703.78;;;6.69;100.00
71195;BME280;58908;51.426;7.714;2024-02-23T21:09:58;97703.19;;;6.66;100.00
71195;BME280;58908;51.426;7.714;2024-02-23T21:12:24;97704.50;;;6.71;100.00
71195;BME280;58908;51.426;7.714;2024-02-23T21:14:50;97695.69;;;6.61;100.00
71195;BME280;58908;51.426;7.714;2024-02-23T21:17:17;97707.84;;;6.62;100.00
71195;BME280;58908;51.426;7.714;2024-02-23T21:19:43;97705.25;;;6.50;100.00
71195;BME280;58908;51.426;7.714;2024-02-23T21:22:09;97709.16;;;6.68;100.00
71195;BME280;58908;51.426;7.714;2024-02-23T21:24:37;97711.78;;;6.44;100.00
71195;BME280;58908;51.426;7.714;2024-02-23T21:27:04;97715.00;;;6.24;100.00
71195;BME280;58908;51.426;7.714;2024-02-23T21:29:30;97716.31;;;6.42;100.00
71195;BME280;58908;51.426;7.714;2024-02-23T21:31:57;97720.59;;;6.43;100.00
71195;BME280;58908;51.426;7.714;2024-02-23T21:34:24;97718.50;;;6.12;100.00
71195;BME280;58908;51.426;7.714;2024-02-23T21:36:50;97720.16;;;6.26;100.00
71195;BME280;58908;51.426;7.714;2024-02-23T21:39:17;97704.09;;;6.30;100.00
71195;BME280;58908;51.426;7.714;2024-02-23T21:41:44;97706.81;;;6.29;100.00
71195;BME280;58908;51.426;7.714;2024-02-23T21:44:10;97716.63;;;6.38;100.00
71195;BME280;58908;51.426;7.714;2024-02-23T21:46:37;97704.38;;;6.38;100.00
71195;BME280;58908;51.426;7.714;2024-02-23T21:49:03;97705.56;;;6.58;100.00
71195;BME280;58908;51.426;7.714;2024-02-23T21:51:30;97701.81;;;6.49;100.00
71195;BME280;58908;51.426;7.714;2024-02-23T21:53:56;97697.66;;;6.47;100.00
71195;BME280;58908;51.426;7.714;2024-02-23T21:56:22;97702.56;;;6.51;100.00
71195;BME280;58908;51.426;7.714;2024-02-23T21:58:50;97702.56;;;6.51;100.00
71195;BME280;58908;51.426;7.714;2024-02-23T22:01:16;97703.56;;;6.38;100.00
71195;BME280;58908;51.426;7.714;2024-02-23T22:03:42;97706.66;;;6.19;100.00
71195;BME280;58908;51.426;7.714;2024-02-23T22:06:09;97713.56;;;6.44;100.00
71195;BME280;58908;51.426;7.714;2024-02-23T22:08:35;97713.41;;;6.58;100.00
71195;BME280;58908;51.426;7.714;2024-02-23T22:11:01;97710.41;;;6.51;100.00
71195;BME280;58908;51.426;7.714;2024-02-23T22:13:27;97716.19;;;6.44;100.00
71195;BME280;58908;51.426;7.714;2024-02-23T22:15:56;97710.03;;;6.45;100.00
71195;BME280;58908;51.426;7.714;2024-02-23T22:18:22;97710.13;;;6.43;100.00
71195;BME280;58908;51.426;7.714;2024-02-23T22:20:48;97713.47;;;6.45;100.00
71195;BME280;58908;51.426;7.714;2024-02-23T22:23:15;97720.97;;;6.50;100.00
71195;BME280;58908;51.426;7.714;2024-02-23T22:25:41;97712.78;;;6.54;100.00
71195;BME280;58908;51.426;7.714;2024-02-23T22:28:07;97704.75;;;6.68;100.00
71195;BME280;58908;51.426;7.714;2024-02-23T22:30:33;97702.22;;;6.56;100.00
71195;BME280;58908;51.426;7.714;2024-02-23T22:33:01;97705.75;;;6.55;100.00
71195;BME280;58908;51.426;7.714;2024-02-23T22:35:30;97703.94;;;6.44;100.00
71195;BME280;58908;51.426;7.714;2024-02-23T22:37:56;97707.72;;;6.40;100.00
71195;BME280;58908;51.426;7.714;2024-02-23T22:40:24;97710.50;;;6.50;100.00
71195;BME280;58908;51.426;7.714;2024-02-23T22:42:50;97704.31;;;6.51;100.00
71195;BME280;58908;51.426;7.714;2024-02-23T22:45:17;97706.34;;;6.24;100.00
71195;BME280;58908;51.426;7.714;2024-02-23T22:47:43;97709.88;;;6.46;100.00
71195;BME280;58908;51.426;7.714;2024-02-23T22:50:10;97702.81;;;6.36;100.00
71195;BME280;58908;51.426;7.714;2024-02-23T22:52:37;97703.53;;;6.14;100.00
71195;BME280;58908;51.426;7.714;2024-02-23T22:55:04;97701.25;;;6.33;100.00
71195;BME280;58908;51.426;7.714;2024-02-23T22:57:30;97707.50;;;6.43;100.00
71195;BME280;58908;51.426;7.714;2024-02-23T22:59:56;97709.13;;;6.33;100.00
71195;BME280;58908;51.426;7.714;2024-02-23T23:02:22;97709.47;;;6.16;100.00
71195;BME280;58908;51.426;7.714;2024-02-23T23:04:49;97715.50;;;6.06;100.00
71195;BME280;58908;51.426;7.714;2024-02-23T23:07:16;97717.25;;;6.05;100.00
71195;BME280;58908;51.426;7.714;2024-02-23T23:09:43;97715.97;;;6.23;100.00
71195;BME280;58908;51.426;7.714;2024-02-23T23:12:09;97714.31;;;6.10;100.00
71195;BME280;58908;51.426;7.714;2024-02-23T23:14:36;97722.31;;;6.08;100.00
71195;BME280;58908;51.426;7.714;2024-02-23T23:17:02;97722.94;;;5.99;100.00
71195;BME280;58908;51.426;7.714;2024-02-23T23:19:28;97719.00;;;5.94;100.00
71195;BME280;58908;51.426;7.714;2024-02-23T23:21:55;97722.22;;;5.97;100.00
71195;BME280;58908;51.426;7.714;2024-02-23T23:24:22;97722.63;;;6.04;100.00
71195;BME280;58908;51.426;7.714;2024-02-23T23:26:49;97725.56;;;5.99;100.00
71195;BME280;58908;51.426;7.714;2024-02-23T23:29:15;97732.69;;;5.97;100.00
71195;BME280;58908;51.426;7.714;2024-02-23T23:31:41;97726.69;;;6.08;100.00
71195;BME280;58908;51.426;7.714;2024-02-23T23:34:07;97728.16;;;6.12;100.00
71195;BME280;58908;51.426;7.714;2024-02-23T23:36:34;97732.50;;;6.24;100.00
71195;BME280;58908;51.426;7.714;2024-02-23T23:39:00;97728.72;;;6.28;100.00
71195;BME280;58908;51.426;7.714;2024-02-23T23:41:27;97742.13;;;6.23;100.00
71195;BME280;58908;51.426;7.714;2024-02-23T23:43:54;97736.72;;;6.37;100.00
71195;BME280;58908;51.426;7.714;2024-02-23T23:46:20;97741.03;;;6.38;100.00
71195;BME280;58908;51.426;7.714;2024-02-23T23:48:46;97731.63;;;6.36;100.00
71195;BME280;58908;51.426;7.714;2024-02-23T23:51:12;97731.63;;;6.36;100.00
71195;BME280;58908;51.426;7.714;2024-02-23T23:53:39;97730.84;;;6.23;100.00
71195;BME280;58908;51.426;7.714;2024-02-23T23:56:07;97733.56;;;6.21;100.00
71195;BME280;58908;51.426;7.714;2024-02-23T23:58:34;97728.50;;;6.07;100.00
